sensor_id;sensor_type;location;lat;lon;timestamp;P1;durP1;ratioP1;P2;durP2;ratioP2
67164;SDS011;54093;50.014;19.984;2023-05-27T00:06:40;3.08;;;2.85;;
67164;SDS011;54093;50.014;19.984;2023-05-27T00:16:01;4.00;;;2.78;;
67164;SDS011;54093;50.014;19.984;2023-05-27T00:25:22;6.43;;;2.67;;
67164;SDS011;54093;50.014;19.984;2023-05-27T00:34:44;3.95;;;3.47;;
67164;SDS011;54093;50.014;19.984;2023-05-27T00:44:05;4.50;;;3.08;;
67164;SDS011;54093;50.014;19.984;2023-05-27T00:53:26;9.13;;;3.22;;
67164;SDS011;54093;50.014;19.984;2023-05-27T01:02:47;6.38;;;2.80;;
67164;SDS011;54093;50.014;19.984;2023-05-27T01:12:16;5.45;;;2.70;;
67164;SDS011;54093;50.014;19.984;2023-05-27T01:21:48;3.15;;;2.83;;
67164;SDS011;54093;50.014;19.984;2023-05-27T01:31:25;2.67;;;2.47;;
67164;SDS011;54093;50.014;19.984;2023-05-27T01:41:03;7.70;;;2.65;;
67164;SDS011;54093;50.014;19.984;2023-05-27T01:50:25;2.63;;;2.42;;
67164;SDS011;54093;50.014;19.984;2023-05-27T01:59:47;6.40;;;3.38;;
67164;SDS011;54093;50.014;19.984;2023-05-27T02:09:07;6.88;;;2.47;;
67164;SDS011;54093;50.014;19.984;2023-05-27T02:18:28;8.05;;;2.70;;
67164;SDS011;54093;50.014;19.984;2023-05-27T02:27:49;2.85;;;2.55;;
67164;SDS011;54093;50.014;19.984;2023-05-27T02:37:12;3.30;;;3.00;;
67164;SDS011;54093;50.014;19.984;2023-05-27T02:46:33;4.50;;;3.03;;
67164;SDS011;54093;50.014;19.984;2023-05-27T02:55:54;4.47;;;2.95;;
67164;SDS011;54093;50.014;19.984;2023-05-27T03:05:15;4.03;;;2.47;;
67164;SDS011;54093;50.014;19.984;2023-05-27T03:14:36;4.07;;;2.95;;
67164;SDS011;54093;50.014;19.984;2023-05-27T03:23:59;2.90;;;2.28;;
67164;SDS011;54093;50.014;19.984;2023-05-27T03:33:20;2.83;;;2.53;;
67164;SDS011;54093;50.014;19.984;2023-05-27T03:42:41;3.28;;;2.38;;
67164;SDS011;54093;50.014;19.984;2023-05-27T03:52:02;3.78;;;2.95;;
67164;SDS011;54093;50.014;19.984;2023-05-27T04:01:23;4.68;;;2.80;;
67164;SDS011;54093;50.014;19.984;2023-05-27T04:10:44;5.38;;;2.80;;
67164;SDS011;54093;50.014;19.984;2023-05-27T04:20:05;6.50;;;2.88;;
67164;SDS011;54093;50.014;19.984;2023-05-27T04:29:33;3.40;;;2.60;;
67164;SDS011;54093;50.014;19.984;2023-05-27T04:38:54;5.40;;;3.22;;
67164;SDS011;54093;50.014;19.984;2023-05-27T04:48:16;9.02;;;3.58;;
67164;SDS011;54093;50.014;19.984;2023-05-27T04:57:36;3.15;;;2.85;;
67164;SDS011;54093;50.014;19.984;2023-05-27T05:07:02;11.33;;;3.43;;
67164;SDS011;54093;50.014;19.984;2023-05-27T05:16:24;7.43;;;3.00;;
67164;SDS011;54093;50.014;19.984;2023-05-27T05:25:45;5.88;;;3.38;;
67164;SDS011;54093;50.014;19.984;2023-05-27T06:31:30;4.65;;;3.00;;
67164;SDS011;54093;50.014;19.984;2023-05-27T06:40:53;14.35;;;3.40;;
67164;SDS011;54093;50.014;19.984;2023-05-27T06:50:14;6.15;;;2.70;;
67164;SDS011;54093;50.014;19.984;2023-05-27T06:59:35;8.43;;;3.30;;
67164;SDS011;54093;50.014;19.984;2023-05-27T07:08:58;6.63;;;2.95;;
67164;SDS011;54093;50.014;19.984;2023-05-27T07:18:19;15.98;;;3.97;;
67164;SDS011;54093;50.014;19.984;2023-05-27T07:27:40;6.57;;;3.13;;
67164;SDS011;54093;50.014;19.984;2023-05-27T07:37:01;6.78;;;2.75;;
67164;SDS011;54093;50.014;19.984;2023-05-27T07:46:22;6.65;;;3.00;;
67164;SDS011;54093;50.014;19.984;2023-05-27T07:55:45;10.55;;;3.40;;
67164;SDS011;54093;50.014;19.984;2023-05-27T08:05:06;7.35;;;2.95;;
67164;SDS011;54093;50.014;19.984;2023-05-27T08:14:27;6.13;;;2.83;;
67164;SDS011;54093;50.014;19.984;2023-05-27T08:23:48;12.38;;;3.05;;
67164;SDS011;54093;50.014;19.984;2023-05-27T08:33:09;9.90;;;2.75;;
67164;SDS011;54093;50.014;19.984;2023-05-27T08:42:33;6.60;;;3.17;;
67164;SDS011;54093;50.014;19.984;2023-05-27T08:52:01;9.07;;;3.70;;
67164;SDS011;54093;50.014;19.984;2023-05-27T09:01:24;11.60;;;3.15;;
67164;SDS011;54093;50.014;19.984;2023-05-27T09:10:46;6.22;;;3.20;;
67164;SDS011;54093;50.014;19.984;2023-05-27T09:20:13;11.43;;;3.08;;
67164;SDS011;54093;50.014;19.984;2023-05-27T09:29:37;10.13;;;3.40;;
67164;SDS011;54093;50.014;19.984;2023-05-27T09:39:02;5.45;;;2.63;;
67164;SDS011;54093;50.014;19.984;2023-05-27T09:48:25;8.88;;;3.38;;
67164;SDS011;54093;50.014;19.984;2023-05-27T09:57:48;5.03;;;2.83;;
67164;SDS011;54093;50.014;19.984;2023-05-27T10:07:10;3.55;;;2.53;;
67164;SDS011;54093;50.014;19.984;2023-05-27T10:16:35;11.65;;;2.88;;
67164;SDS011;54093;50.014;19.984;2023-05-27T10:26:07;6.25;;;2.83;;
67164;SDS011;54093;50.014;19.984;2023-05-27T10:35:41;4.38;;;2.72;;
67164;SDS011;54093;50.014;19.984;2023-05-27T10:45:08;7.40;;;3.15;;
67164;SDS011;54093;50.014;19.984;2023-05-27T10:54:32;5.85;;;3.05;;
67164;SDS011;54093;50.014;19.984;2023-05-27T11:03:54;3.85;;;2.70;;
67164;SDS011;54093;50.014;19.984;2023-05-27T11:13:16;3.95;;;3.30;;
67164;SDS011;54093;50.014;19.984;2023-05-27T11:22:37;3.33;;;2.92;;
67164;SDS011;54093;50.014;19.984;2023-05-27T11:31:58;4.05;;;3.38;;
67164;SDS011;54093;50.014;19.984;2023-05-27T11:41:20;3.25;;;3.05;;
67164;SDS011;54093;50.014;19.984;2023-05-27T11:50:42;6.85;;;3.05;;
67164;SDS011;54093;50.014;19.984;2023-05-27T12:00:03;4.15;;;3.85;;
67164;SDS011;54093;50.014;19.984;2023-05-27T12:09:28;3.20;;;3.00;;
67164;SDS011;54093;50.014;19.984;2023-05-27T12:18:50;3.53;;;3.00;;
67164;SDS011;54093;50.014;19.984;2023-05-27T12:28:19;3.38;;;3.08;;
67164;SDS011;54093;50.014;19.984;2023-05-27T12:38:06;4.10;;;2.72;;
67164;SDS011;54093;50.014;19.984;2023-05-27T12:47:28;4.65;;;2.90;;
67164;SDS011;54093;50.014;19.984;2023-05-27T13:06:14;2.55;;;2.35;;
67164;SDS011;54093;50.014;19.984;2023-05-27T13:15:35;2.60;;;2.40;;
67164;SDS011;54093;50.014;19.984;2023-05-27T13:24:56;5.25;;;3.30;;
67164;SDS011;54093;50.014;19.984;2023-05-27T13:34:17;5.97;;;3.10;;
67164;SDS011;54093;50.014;19.984;2023-05-27T13:43:38;2.70;;;1.90;;
67164;SDS011;54093;50.014;19.984;2023-05-27T13:52:59;2.60;;;2.33;;
67164;SDS011;54093;50.014;19.984;2023-05-27T14:02:20;3.28;;;1.90;;
67164;SDS011;54093;50.014;19.984;2023-05-27T14:11:40;2.33;;;2.03;;
67164;SDS011;54093;50.014;19.984;2023-05-27T14:21:01;2.30;;;1.55;;
67164;SDS011;54093;50.014;19.984;2023-05-27T14:30:22;3.95;;;2.10;;
67164;SDS011;54093;50.014;19.984;2023-05-27T14:39:45;2.22;;;1.70;;
67164;SDS011;54093;50.014;19.984;2023-05-27T14:49:06;3.08;;;1.92;;
67164;SDS011;54093;50.014;19.984;2023-05-27T14:58:27;2.28;;;1.88;;
67164;SDS011;54093;50.014;19.984;2023-05-27T15:07:48;2.00;;;1.50;;
67164;SDS011;54093;50.014;19.984;2023-05-27T15:17:12;2.80;;;1.70;;
67164;SDS011;54093;50.014;19.984;2023-05-27T15:26:33;2.20;;;1.60;;
67164;SDS011;54093;50.014;19.984;2023-05-27T15:35:54;2.97;;;1.75;;
67164;SDS011;54093;50.014;19.984;2023-05-27T15:45:15;2.17;;;1.90;;
67164;SDS011;54093;50.014;19.984;2023-05-27T15:54:37;1.85;;;1.75;;
67164;SDS011;54093;50.014;19.984;2023-05-27T16:04:01;1.92;;;1.77;;
67164;SDS011;54093;50.014;19.984;2023-05-27T16:13:23;2.85;;;2.00;;
67164;SDS011;54093;50.014;19.984;2023-05-27T16:22:44;3.05;;;1.63;;
67164;SDS011;54093;50.014;19.984;2023-05-27T16:32:06;2.00;;;1.90;;
67164;SDS011;54093;50.014;19.984;2023-05-27T16:41:28;9.57;;;3.50;;
67164;SDS011;54093;50.014;19.984;2023-05-27T16:50:49;8.13;;;1.98;;
67164;SDS011;54093;50.014;19.984;2023-05-27T17:00:10;2.50;;;2.30;;
67164;SDS011;54093;50.014;19.984;2023-05-27T17:09:32;2.65;;;1.80;;
67164;SDS011;54093;50.014;19.984;2023-05-27T17:18:53;1.98;;;1.70;;
67164;SDS011;54093;50.014;19.984;2023-05-27T17:28:15;3.28;;;2.08;;
67164;SDS011;54093;50.014;19.984;2023-05-27T17:37:36;3.60;;;2.30;;
67164;SDS011;54093;50.014;19.984;2023-05-27T18:21:42;4.20;;;2.05;;
67164;SDS011;54093;50.014;19.984;2023-05-27T18:31:03;4.38;;;2.70;;
67164;SDS011;54093;50.014;19.984;2023-05-27T18:40:24;4.05;;;2.00;;
67164;SDS011;54093;50.014;19.984;2023-05-27T18:49:47;9.20;;;2.60;;
67164;SDS011;54093;50.014;19.984;2023-05-27T18:59:09;6.00;;;2.53;;
67164;SDS011;54093;50.014;19.984;2023-05-27T19:08:30;3.55;;;2.90;;
67164;SDS011;54093;50.014;19.984;2023-05-27T19:17:51;3.15;;;2.63;;
67164;SDS011;54093;50.014;19.984;2023-05-27T19:27:13;8.48;;;2.97;;
67164;SDS011;54093;50.014;19.984;2023-05-27T19:36:34;3.72;;;3.17;;
67164;SDS011;54093;50.014;19.984;2023-05-27T19:45:56;6.32;;;4.45;;
67164;SDS011;54093;50.014;19.984;2023-05-27T19:55:19;5.30;;;3.83;;
67164;SDS011;54093;50.014;19.984;2023-05-27T20:04:41;4.50;;;3.50;;
67164;SDS011;54093;50.014;19.984;2023-05-27T20:14:02;6.90;;;3.70;;
67164;SDS011;54093;50.014;19.984;2023-05-27T20:23:23;5.93;;;3.08;;
67164;SDS011;54093;50.014;19.984;2023-05-27T20:32:44;4.53;;;4.07;;
67164;SDS011;54093;50.014;19.984;2023-05-27T20:42:07;7.45;;;3.72;;
67164;SDS011;54093;50.014;19.984;2023-05-27T20:51:29;6.30;;;4.45;;
67164;SDS011;54093;50.014;19.984;2023-05-27T21:00:51;7.28;;;4.43;;
67164;SDS011;54093;50.014;19.984;2023-05-27T21:10:12;5.25;;;4.60;;
67164;SDS011;54093;50.014;19.984;2023-05-27T21:19:34;4.72;;;3.97;;
67164;SDS011;54093;50.014;19.984;2023-05-27T21:28:55;4.50;;;4.10;;
67164;SDS011;54093;50.014;19.984;2023-05-27T21:38:16;8.82;;;4.50;;
67164;SDS011;54093;50.014;19.984;2023-05-27T21:47:37;4.82;;;4.50;;
67164;SDS011;54093;50.014;19.984;2023-05-27T21:56:58;7.13;;;4.40;;
67164;SDS011;54093;50.014;19.984;2023-05-27T22:06:20;5.88;;;4.68;;
67164;SDS011;54093;50.014;19.984;2023-05-27T22:15:41;9.10;;;4.88;;
67164;SDS011;54093;50.014;19.984;2023-05-27T22:25:03;8.63;;;5.80;;
67164;SDS011;54093;50.014;19.984;2023-05-27T22:34:25;9.57;;;7.55;;
67164;SDS011;54093;50.014;19.984;2023-05-27T22:43:46;8.20;;;6.88;;
67164;SDS011;54093;50.014;19.984;2023-05-27T22:53:07;7.72;;;6.55;;
67164;SDS011;54093;50.014;19.984;2023-05-27T23:02:28;8.77;;;6.07;;
67164;SDS011;54093;50.014;19.984;2023-05-27T23:11:49;6.97;;;5.97;;
67164;SDS011;54093;50.014;19.984;2023-05-27T23:21:10;6.72;;;5.55;;
67164;SDS011;54093;50.014;19.984;2023-05-27T23:30:31;5.10;;;4.68;;
67164;SDS011;54093;50.014;19.984;2023-05-27T23:39:51;13.00;;;5.55;;
67164;SDS011;54093;50.014;19.984;2023-05-27T23:49:12;4.97;;;4.10;;
67164;SDS011;54093;50.014;19.984;2023-05-27T23:58:33;5.43;;;4.07;;
